sensor_id;sensor_type;location;lat;lon;timestamp;pressure;altitude;pressure_sealevel;temperature;humidity
75895;BME280;64573;50.328;15.014;2023-02-15T00:21:55;100546.59;;;1.77;84.73
75895;BME280;64573;50.328;15.014;2023-02-15T04:50:51;100396.97;;;0.48;86.35
75895;BME280;64573;50.328;15.014;2023-02-15T05:29:19;100377.00;;;0.27;86.37
75895;BME280;64573;50.328;15.014;2023-02-15T06:54:29;100411.78;;;0.18;86.27
75895;BME280;64573;50.328;15.014;2023-02-15T06:56:55;100423.91;;;0.22;86.20
75895;BME280;64573;50.328;15.014;2023-02-15T07:07:10;100439.75;;;0.22;85.77
75895;BME280;64573;50.328;15.014;2023-02-15T07:30:12;100428.69;;;0.31;85.60
75895;BME280;64573;50.328;15.014;2023-02-15T07:48:08;100415.59;;;0.30;85.52
75895;BME280;64573;50.328;15.014;2023-02-15T08:42:18;100386.94;;;0.55;83.82
75895;BME280;64573;50.328;15.014;2023-02-15T08:44:52;100391.28;;;0.72;83.59
75895;BME280;64573;50.328;15.014;2023-02-15T08:52:30;100393.34;;;0.98;82.88
75895;BME280;64573;50.328;15.014;2023-02-15T09:02:47;100378.53;;;0.96;82.27
75895;BME280;64573;50.328;15.014;2023-02-15T09:23:22;100363.53;;;0.80;82.68
75895;BME280;64573;50.328;15.014;2023-02-15T11:22:48;100317.72;;;1.42;80.29
75895;BME280;64573;50.328;15.014;2023-02-15T11:30:32;100307.97;;;1.72;79.56
75895;BME280;64573;50.328;15.014;2023-02-15T11:52:50;100299.88;;;1.75;80.01
75895;BME280;64573;50.328;15.014;2023-02-15T12:05:28;100263.75;;;0.86;82.39
75895;BME280;64573;50.328;15.014;2023-02-15T15:07:58;100170.44;;;1.15;81.97
75895;BME280;64573;50.328;15.014;2023-02-15T15:28:09;100159.88;;;1.15;82.25
75895;BME280;64573;50.328;15.014;2023-02-15T15:33:20;100147.69;;;1.13;83.07
75895;BME280;64573;50.328;15.014;2023-02-15T16:16:40;100135.84;;;0.45;85.31
75895;BME280;64573;50.328;15.014;2023-02-15T16:31:42;100131.41;;;-0.16;87.22
75895;BME280;64573;50.328;15.014;2023-02-15T16:36:43;100128.97;;;-0.35;87.91
75895;BME280;64573;50.328;15.014;2023-02-15T16:49:28;100126.25;;;-0.66;89.61
75895;BME280;64573;50.328;15.014;2023-02-15T16:52:02;100146.81;;;-0.73;89.39
75895;BME280;64573;50.328;15.014;2023-02-15T17:15:06;100130.41;;;-1.46;92.76
75895;BME280;64573;50.328;15.014;2023-02-15T17:20:15;100137.72;;;-1.87;92.66
75895;BME280;64573;50.328;15.014;2023-02-15T17:35:32;100119.41;;;-2.43;93.88
75895;BME280;64573;50.328;15.014;2023-02-15T18:13:59;100105.34;;;-3.60;95.73
75895;BME280;64573;50.328;15.014;2023-02-15T18:21:37;100105.44;;;-3.63;95.24
75895;BME280;64573;50.328;15.014;2023-02-15T18:31:51;100112.66;;;-3.48;95.79
75895;BME280;64573;50.328;15.014;2023-02-15T18:36:52;100109.72;;;-3.61;95.54
75895;BME280;64573;50.328;15.014;2023-02-15T19:10:35;100103.25;;;-4.16;95.99
75895;BME280;64573;50.328;15.014;2023-02-15T19:20:46;100097.34;;;-4.21;95.90
75895;BME280;64573;50.328;15.014;2023-02-15T19:46:28;100070.91;;;-4.15;96.66
75895;BME280;64573;50.328;15.014;2023-02-15T19:48:54;100079.31;;;-4.07;96.56
75895;BME280;64573;50.328;15.014;2023-02-15T19:53:50;100073.00;;;-4.23;96.32
75895;BME280;64573;50.328;15.014;2023-02-15T19:56:22;100080.75;;;-4.00;96.84
75895;BME280;64573;50.328;15.014;2023-02-15T19:58:49;100078.84;;;-3.74;96.70
75895;BME280;64573;50.328;15.014;2023-02-15T20:01:22;100081.25;;;-3.70;96.86
75895;BME280;64573;50.328;15.014;2023-02-15T20:03:48;100085.06;;;-3.77;97.19
75895;BME280;64573;50.328;15.014;2023-02-15T20:08:45;100072.50;;;-3.69;96.60
75895;BME280;64573;50.328;15.014;2023-02-15T20:11:12;100080.72;;;-3.78;96.40
75895;BME280;64573;50.328;15.014;2023-02-15T20:13:38;100072.06;;;-4.00;96.56
75895;BME280;64573;50.328;15.014;2023-02-15T20:18:37;100092.00;;;-3.55;97.05
75895;BME280;64573;50.328;15.014;2023-02-15T20:21:03;100084.22;;;-3.37;97.28
75895;BME280;64573;50.328;15.014;2023-02-15T20:23:31;100092.56;;;-3.68;97.40
75895;BME280;64573;50.328;15.014;2023-02-15T20:26:01;100078.22;;;-4.01;97.07
75895;BME280;64573;50.328;15.014;2023-02-15T20:28:29;100093.25;;;-4.06;97.19
75895;BME280;64573;50.328;15.014;2023-02-15T20:33:30;100092.03;;;-3.76;96.85
75895;BME280;64573;50.328;15.014;2023-02-15T20:35:55;100090.94;;;-3.92;97.39
75895;BME280;64573;50.328;15.014;2023-02-15T20:38:28;100083.69;;;-4.07;96.91
75895;BME280;64573;50.328;15.014;2023-02-15T20:40:55;100085.09;;;-4.21;97.12
75895;BME280;64573;50.328;15.014;2023-02-15T20:43:41;100075.78;;;-4.28;97.13
75895;BME280;64573;50.328;15.014;2023-02-15T20:46:07;100078.38;;;-4.26;97.61
75895;BME280;64573;50.328;15.014;2023-02-15T20:51:00;100065.00;;;-4.20;97.16
75895;BME280;64573;50.328;15.014;2023-02-15T20:53:27;100065.06;;;-4.22;97.03
75895;BME280;64573;50.328;15.014;2023-02-15T20:58:24;100054.50;;;-4.40;97.36
75895;BME280;64573;50.328;15.014;2023-02-15T21:00:58;100060.69;;;-4.43;96.98
75895;BME280;64573;50.328;15.014;2023-02-15T21:03:25;100059.03;;;-4.24;97.01
75895;BME280;64573;50.328;15.014;2023-02-15T21:05:54;100038.88;;;-4.22;97.37
75895;BME280;64573;50.328;15.014;2023-02-15T21:08:21;100040.03;;;-4.29;97.45
75895;BME280;64573;50.328;15.014;2023-02-15T21:10:49;100044.56;;;-4.32;97.38
75895;BME280;64573;50.328;15.014;2023-02-15T21:13:28;100038.41;;;-4.31;97.47
75895;BME280;64573;50.328;15.014;2023-02-15T21:15:55;100028.16;;;-4.37;97.57
75895;BME280;64573;50.328;15.014;2023-02-15T21:18:30;100030.00;;;-4.39;97.81
75895;BME280;64573;50.328;15.014;2023-02-15T21:20:58;100021.63;;;-4.48;97.26
75895;BME280;64573;50.328;15.014;2023-02-15T21:23:38;100034.41;;;-4.62;97.96
75895;BME280;64573;50.328;15.014;2023-02-15T21:26:06;100034.56;;;-4.66;97.13
75895;BME280;64573;50.328;15.014;2023-02-15T21:28:35;100027.56;;;-4.66;97.10
75895;BME280;64573;50.328;15.014;2023-02-15T21:31:00;100025.00;;;-4.67;97.50
75895;BME280;64573;50.328;15.014;2023-02-15T21:33:26;100024.88;;;-4.64;97.52
75895;BME280;64573;50.328;15.014;2023-02-15T21:35:54;100024.16;;;-4.68;97.34
75895;BME280;64573;50.328;15.014;2023-02-15T21:38:23;100021.25;;;-4.60;97.40
75895;BME280;64573;50.328;15.014;2023-02-15T21:40:49;100024.00;;;-4.63;97.74
75895;BME280;64573;50.328;15.014;2023-02-15T21:43:22;100022.94;;;-4.59;97.81
75895;BME280;64573;50.328;15.014;2023-02-15T21:45:54;100019.84;;;-4.69;97.96
75895;BME280;64573;50.328;15.014;2023-02-15T21:48:37;100024.75;;;-4.83;97.44
75895;BME280;64573;50.328;15.014;2023-02-15T21:51:03;100016.44;;;-4.94;97.44
75895;BME280;64573;50.328;15.014;2023-02-15T21:53:42;100009.31;;;-5.13;97.28
75895;BME280;64573;50.328;15.014;2023-02-15T21:56:15;100016.94;;;-5.07;97.67
75895;BME280;64573;50.328;15.014;2023-02-15T21:58:41;100013.28;;;-5.03;97.82
75895;BME280;64573;50.328;15.014;2023-02-15T22:01:20;100016.94;;;-5.07;97.80
75895;BME280;64573;50.328;15.014;2023-02-15T22:03:45;100024.72;;;-5.05;97.71
75895;BME280;64573;50.328;15.014;2023-02-15T22:06:11;100017.53;;;-5.00;97.41
75895;BME280;64573;50.328;15.014;2023-02-15T22:08:37;100023.03;;;-5.06;98.38
75895;BME280;64573;50.328;15.014;2023-02-15T22:11:09;100026.88;;;-5.16;98.06
75895;BME280;64573;50.328;15.014;2023-02-15T22:13:35;100029.53;;;-5.18;97.19
75895;BME280;64573;50.328;15.014;2023-02-15T22:16:01;100028.75;;;-5.20;97.53
75895;BME280;64573;50.328;15.014;2023-02-15T22:18:29;100033.72;;;-5.12;98.09
75895;BME280;64573;50.328;15.014;2023-02-15T22:20:55;100036.31;;;-5.12;98.14
75895;BME280;64573;50.328;15.014;2023-02-15T22:23:21;100032.22;;;-5.19;98.30
75895;BME280;64573;50.328;15.014;2023-02-15T22:25:52;100032.63;;;-5.07;97.37
75895;BME280;64573;50.328;15.014;2023-02-15T22:28:22;100032.66;;;-5.08;97.55
75895;BME280;64573;50.328;15.014;2023-02-15T22:30:48;100036.88;;;-5.04;98.15
75895;BME280;64573;50.328;15.014;2023-02-15T22:33:22;100029.75;;;-5.01;98.02
75895;BME280;64573;50.328;15.014;2023-02-15T22:35:47;100031.75;;;-5.07;98.00
75895;BME280;64573;50.328;15.014;2023-02-15T22:38:13;100028.47;;;-5.12;97.55
75895;BME280;64573;50.328;15.014;2023-02-15T22:40:38;100032.59;;;-5.30;97.94
75895;BME280;64573;50.328;15.014;2023-02-15T22:43:04;100028.50;;;-5.37;97.66
75895;BME280;64573;50.328;15.014;2023-02-15T22:45:31;100024.25;;;-5.40;98.44
75895;BME280;64573;50.328;15.014;2023-02-15T22:47:58;100026.22;;;-5.46;97.97
75895;BME280;64573;50.328;15.014;2023-02-15T22:50:27;100020.78;;;-5.40;98.42
75895;BME280;64573;50.328;15.014;2023-02-15T22:52:53;100012.78;;;-5.36;98.42
75895;BME280;64573;50.328;15.014;2023-02-15T22:55:22;100012.81;;;-5.37;98.38
75895;BME280;64573;50.328;15.014;2023-02-15T22:57:51;100014.38;;;-5.32;97.48
75895;BME280;64573;50.328;15.014;2023-02-15T23:00:19;100015.84;;;-5.24;98.23
75895;BME280;64573;50.328;15.014;2023-02-15T23:02:46;100015.22;;;-5.31;97.84
75895;BME280;64573;50.328;15.014;2023-02-15T23:07:41;100009.13;;;-5.55;98.22
75895;BME280;64573;50.328;15.014;2023-02-15T23:10:06;100018.31;;;-5.45;97.24
75895;BME280;64573;50.328;15.014;2023-02-15T23:12:45;100009.81;;;-5.50;97.41
75895;BME280;64573;50.328;15.014;2023-02-15T23:15:29;100016.69;;;-5.47;97.66
75895;BME280;64573;50.328;15.014;2023-02-15T23:17:54;100016.78;;;-5.50;97.43
75895;BME280;64573;50.328;15.014;2023-02-15T23:20:19;100009.84;;;-5.51;97.34
75895;BME280;64573;50.328;15.014;2023-02-15T23:22:45;100007.88;;;-5.45;97.34
75895;BME280;64573;50.328;15.014;2023-02-15T23:25:11;100002.03;;;-5.28;97.66
75895;BME280;64573;50.328;15.014;2023-02-15T23:27:36;100002.84;;;-5.26;97.34
75895;BME280;64573;50.328;15.014;2023-02-15T23:30:21;100004.69;;;-5.30;97.98
75895;BME280;64573;50.328;15.014;2023-02-15T23:32:47;100000.59;;;-5.37;97.29
75895;BME280;64573;50.328;15.014;2023-02-15T23:35:17;100001.00;;;-5.47;97.95
75895;BME280;64573;50.328;15.014;2023-02-15T23:37:42;99996.75;;;-5.50;97.56
75895;BME280;64573;50.328;15.014;2023-02-15T23:40:16;100009.75;;;-5.48;97.80
75895;BME280;64573;50.328;15.014;2023-02-15T23:43:00;100004.63;;;-5.51;97.95
75895;BME280;64573;50.328;15.014;2023-02-15T23:45:25;100009.63;;;-5.45;98.31
75895;BME280;64573;50.328;15.014;2023-02-15T23:47:51;100007.94;;;-5.46;97.97
75895;BME280;64573;50.328;15.014;2023-02-15T23:50:35;100006.06;;;-5.43;97.20
75895;BME280;64573;50.328;15.014;2023-02-15T23:53:00;100001.06;;;-5.49;98.29
75895;BME280;64573;50.328;15.014;2023-02-15T23:55:35;100001.28;;;-5.55;98.12
75895;BME280;64573;50.328;15.014;2023-02-15T23:58:03;99993.50;;;-5.57;98.06
